Time;durP1;ratioP1;P1;durP2;ratioP2;P2;SDS_P1;SDS_P2;PMS_P1;PMS_P2;Temp;Humidity;BMP_temperature;BMP_pressure;BME280_temperature;BME280_humidity;BME280_pressure;Samples;Min_cycle;Max_cycle;Signal;HPM_P1;HPM_P2
2023/04/29 00:00:28;;;;;;;34.70;18.60;;;;;;;10.36;50.80;100137.27;113232;1236;21953;-78
2023/04/29 00:03:16;;;;;;;26.30;17.10;;;;;;;10.34;50.97;100135.79;112728;1242;21952;-75
2023/04/29 00:05:50;;;;;;;21.70;16.20;;;;;;;10.35;50.98;100134.73;112699;1242;21976;-77
2023/04/29 00:08:26;;;;;;;24.70;15.70;;;;;;;10.36;50.95;100132.96;112670;1241;22007;-77
2023/04/29 00:10:57;;;;;;;25.20;15.80;;;;;;;10.33;51.43;100128.37;112747;1241;21494;-76
2023/04/29 00:13:31;;;;;;;24.20;15.90;;;;;;;10.31;51.42;100131.38;112944;1240;21957;-77
2023/04/29 00:16:17;;;;;;;19.80;14.70;;;;;;;10.31;51.40;100131.02;112812;1241;23013;-76
2023/04/29 00:18:50;;;;;;;23.90;16.10;;;;;;;10.33;51.53;100126.81;112560;1241;23547;-76
2023/04/29 00:21:37;;;;;;;20.50;14.90;;;;;;;10.32;51.43;100128.23;112753;1239;21970;-76
2023/04/29 00:24:14;;;;;;;20.30;15.10;;;;;;;10.31;51.60;100125.48;112421;1239;21972;-76
2023/04/29 00:26:46;;;;;;;20.80;15.80;;;;;;;10.30;51.80;100125.69;111987;1245;21968;-77
2023/04/29 00:29:18;;;;;;;21.10;15.10;;;;;;;10.29;51.68;100123.81;111742;1248;21977;-77
2023/04/29 00:31:49;;;;;;;18.70;14.70;;;;;;;10.28;51.79;100123.85;111665;1249;21947;-76
2023/04/29 00:34:26;;;;;;;18.80;14.20;;;;;;;10.27;51.85;100119.23;111689;1249;22238;-76
2023/04/29 00:36:59;;;;;;;21.10;14.80;;;;;;;10.21;51.93;100108.50;111395;1249;21961;-76
2023/04/29 00:39:30;;;;;;;18.40;14.60;;;;;;;10.19;51.91;100101.44;111997;1246;22977;-76
2023/04/29 00:42:02;;;;;;;18.40;15.00;;;;;;;10.21;51.98;100107.95;112050;1246;21937;-78
2023/04/29 00:44:42;;;;;;;21.10;15.50;;;;;;;10.19;52.11;100104.58;112342;1241;21989;-77
2023/04/29 00:47:22;;;;;;;19.40;13.80;;;;;;;10.17;52.07;100103.25;112448;1241;21985;-77
2023/04/29 00:50:00;;;;;;;20.50;13.60;;;;;;;10.13;52.21;100105.81;112381;1241;21950;-76
2023/04/29 00:52:32;;;;;;;19.00;14.00;;;;;;;10.09;52.40;100103.92;112196;1241;23690;-75
2023/04/29 00:55:06;;;;;;;19.60;13.30;;;;;;;10.04;52.47;100104.11;112375;1241;22301;-77
2023/04/29 00:57:41;;;;;;;18.40;13.10;;;;;;;10.01;52.55;100106.85;112585;1240;21993;-77
2023/04/29 01:00:15;;;;;;;19.80;12.70;;;;;;;9.99;52.73;100105.18;112502;1241;22703;-75
2023/04/29 01:02:52;;;;;;;19.40;14.00;;;;;;;9.98;52.74;100106.09;112622;1241;21969;-76
2023/04/29 01:05:27;;;;;;;17.10;13.40;;;;;;;9.95;52.78;100101.65;112771;1236;24195;-77
2023/04/29 01:08:32;;;;;;;19.20;12.60;;;;;;;9.93;52.84;100101.22;113044;1236;21955;-76
2023/04/29 01:11:14;;;;;;;16.40;12.40;;;;;;;9.88;52.79;100100.54;113307;1235;21935;-77
2023/04/29 01:13:56;;;;;;;20.10;13.40;;;;;;;9.84;52.81;100099.48;113369;1235;21937;-76
2023/04/29 01:16:43;;;;;;;15.40;13.20;;;;;;;9.82;53.16;100098.00;113517;1236;21927;-76
2023/04/29 01:19:46;;;;;;;16.60;12.50;;;;;;;9.82;53.00;100097.31;113289;1235;21951;-76
2023/04/29 01:22:17;;;;;;;14.90;11.90;;;;;;;9.77;53.35;100095.25;113457;1235;21947;-75
2023/04/29 01:24:49;;;;;;;19.60;12.90;;;;;;;9.74;53.71;100090.66;113317;1235;24112;-76
2023/04/29 01:27:53;;;;;;;17.10;12.90;;;;;;;9.74;53.80;100086.84;113214;1235;22091;-75
2023/04/29 01:30:57;;;;;;;18.80;13.30;;;;;;;9.69;53.75;100083.41;113429;1236;21938;-76
2023/04/29 01:33:47;;;;;;;18.10;12.60;;;;;;;9.69;53.90;100088.95;113410;1235;22770;-77
2023/04/29 01:36:30;;;;;;;18.10;13.00;;;;;;;9.68;53.99;100089.87;113409;1235;22698;-75
2023/04/29 01:39:56;;;;;;;20.20;13.20;;;;;;;9.65;54.06;100087.35;113279;1235;22087;-78
2023/04/29 01:43:00;;;;;;;20.90;13.30;;;;;;;9.61;54.08;100086.48;113545;1235;23021;-76
2023/04/29 01:45:52;;;;;;;20.90;14.00;;;;;;;9.62;54.12;100091.66;113444;1235;24868;-76
2023/04/29 01:48:48;;;;;;;17.90;13.30;;;;;;;9.64;54.05;100090.19;113326;1236;23807;-76
2023/04/29 01:51:30;;;;;;;14.80;12.80;;;;;;;9.68;54.03;100084.65;113393;1235;23003;-77
2023/04/29 01:54:03;;;;;;;15.40;12.90;;;;;;;9.77;54.08;100082.75;112551;1241;22166;-78
2023/04/29 01:56:37;;;;;;;18.40;12.90;;;;;;;9.82;53.89;100079.42;112821;1241;21960;-76
2023/04/29 01:59:17;;;;;;;13.50;11.90;;;;;;;9.87;53.92;100080.60;112859;1241;22332;-76
2023/04/29 02:02:04;;;;;;;20.10;13.40;;;;;;;9.90;53.92;100082.56;112829;1241;21936;-76
2023/04/29 02:04:33;;;;;;;18.70;12.10;;;;;;;9.95;53.96;100081.35;112470;1241;21986;-76
2023/04/29 02:07:06;;;;;;;19.60;13.90;;;;;;;9.95;53.96;100079.23;112545;1241;21948;-77
2023/04/29 02:09:43;;;;;;;16.20;13.60;;;;;;;9.95;54.20;100078.55;111870;1246;23005;-77
2023/04/29 02:12:15;;;;;;;21.80;12.30;;;;;;;9.92;54.06;100079.37;112188;1241;21945;-76
2023/04/29 02:14:53;;;;;;;20.10;13.70;;;;;;;9.90;54.12;100077.72;112542;1241;21955;-75
2023/04/29 02:17:30;;;;;;;17.10;12.90;;;;;;;9.88;54.13;100080.94;112328;1245;23642;-77
2023/04/29 02:20:09;;;;;;;17.50;13.50;;;;;;;9.86;54.32;100078.76;112189;1245;22068;-76
2023/04/29 02:22:40;;;;;;;20.80;15.10;;;;;;;9.85;54.22;100076.35;112139;1245;24306;-77
2023/04/29 02:25:15;;;;;;;21.90;14.50;;;;;;;9.86;54.23;100074.77;111423;1245;22010;-76
2023/04/29 02:27:48;;;;;;;20.30;15.20;;;;;;;9.86;54.03;100068.84;111621;1247;23772;-75
2023/04/29 02:30:18;;;;;;;18.80;15.00;;;;;;;9.87;54.13;100068.29;111849;1245;21960;-76
2023/04/29 02:32:48;;;;;;;18.70;13.90;;;;;;;9.90;54.32;100067.30;111804;1246;21974;-77
2023/04/29 02:35:20;;;;;;;19.60;14.20;;;;;;;9.94;54.28;100066.61;112039;1242;23673;-76
2023/04/29 02:37:56;;;;;;;20.10;15.70;;;;;;;9.98;54.32;100066.65;112489;1242;21963;-75
2023/04/29 02:40:44;;;;;;;19.10;15.10;;;;;;;9.96;54.15;100061.45;111920;1246;24090;-75
2023/04/29 02:43:19;;;;;;;25.50;17.00;;;;;;;9.95;54.21;100063.27;112282;1241;21950;-77
2023/04/29 02:46:02;;;;;;;18.90;15.40;;;;;;;9.94;54.12;100065.56;112306;1243;23593;-76
2023/04/29 02:48:39;;;;;;;19.00;15.80;;;;;;;9.89;54.09;100065.21;111557;1248;22016;-76
2023/04/29 02:51:19;;;;;;;16.50;14.40;;;;;;;9.86;54.22;100061.54;111239;1255;22255;-75
2023/04/29 02:53:54;;;;;;;24.80;15.90;;;;;;;9.84;54.42;100062.98;111268;1255;22012;-75
2023/04/29 02:56:29;;;;;;;24.60;16.10;;;;;;;9.83;54.42;100058.35;111395;1255;22828;-77
2023/04/29 02:59:03;;;;;;;20.20;16.10;;;;;;;9.81;54.49;100058.07;111317;1255;23175;-78
2023/04/29 03:01:40;;;;;;;26.20;14.90;;;;;;;9.77;54.46;100059.95;111484;1254;22000;-77
2023/04/29 03:04:23;;;;;;;24.80;16.10;;;;;;;9.75;54.64;100058.48;111335;1252;21958;-76
2023/04/29 03:06:56;;;;;;;22.90;15.60;;;;;;;9.75;54.59;100059.18;112129;1242;22021;-77
2023/04/29 03:09:30;;;;;;;18.90;14.10;;;;;;;9.76;54.50;100056.38;112910;1236;21937;-77
2023/04/29 03:12:07;;;;;;;16.60;13.40;;;;;;;9.79;54.71;100057.97;113221;1235;22713;-75
2023/04/29 03:14:39;;;;;;;18.50;14.60;;;;;;;9.80;54.71;100059.17;113441;1236;22303;-76
2023/04/29 03:17:15;;;;;;;15.50;13.50;;;;;;;9.80;54.71;100059.67;113268;1236;23568;-76
2023/04/29 03:19:53;;;;;;;18.60;15.10;;;;;;;9.78;54.83;100057.52;112987;1235;21960;-75
2023/04/29 03:22:28;;;;;;;20.70;15.60;;;;;;;9.71;55.18;100055.84;113276;1236;23591;-75
2023/04/29 03:25:06;;;;;;;16.80;14.10;;;;;;;9.67;55.32;100055.15;113225;1235;24324;-76
2023/04/29 03:27:44;;;;;;;18.50;13.80;;;;;;;9.65;55.38;100055.59;113370;1235;23652;-77
2023/04/29 03:30:51;;;;;;;21.20;15.00;;;;;;;9.67;55.43;100055.50;113385;1235;23675;-79
2023/04/29 03:33:36;;;;;;;22.00;14.80;;;;;;;9.68;55.43;100055.45;112813;1239;23612;-76
2023/04/29 03:36:12;;;;;;;19.90;14.80;;;;;;;9.71;55.52;100051.83;112510;1239;22076;-77
2023/04/29 03:39:23;;;;;;;18.80;14.50;;;;;;;9.74;55.45;100054.35;112859;1239;23033;-75
2023/04/29 03:42:24;;;;;;;17.70;12.60;;;;;;;9.75;55.54;100056.73;112601;1239;23005;-76
2023/04/29 03:44:55;;;;;;;18.30;13.10;;;;;;;9.74;55.67;100051.93;112562;1239;22000;-76
2023/04/29 03:47:27;;;;;;;17.40;14.30;;;;;;;9.71;55.70;100050.12;112529;1239;21963;-76
2023/04/29 03:50:03;;;;;;;19.20;14.40;;;;;;;9.69;55.88;100050.73;112538;1239;21966;-76
2023/04/29 03:52:37;;;;;;;16.70;14.20;;;;;;;9.67;56.06;100044.91;112152;1246;21979;-78
2023/04/29 03:55:15;;;;;;;19.90;15.10;;;;;;;9.64;56.08;100044.67;112088;1246;23687;-76
2023/04/29 03:57:48;;;;;;;18.90;13.00;;;;;;;9.64;56.15;100044.13;112262;1242;23610;-76
2023/04/29 04:00:25;;;;;;;15.10;13.00;;;;;;;9.65;56.26;100049.31;112105;1242;22434;-76
2023/04/29 04:02:54;;;;;;;24.60;13.10;;;;;;;9.66;56.38;100045.80;111842;1246;23585;-77
2023/04/29 04:05:30;;;;;;;18.10;13.60;;;;;;;9.70;56.41;100049.46;112056;1246;21966;-77
2023/04/29 04:08:07;;;;;;;17.60;12.10;;;;;;;9.74;56.49;100048.25;111998;1246;21965;-77
2023/04/29 04:11:04;;;;;;;17.10;13.30;;;;;;;9.79;56.60;100046.66;111800;1246;22155;-76
2023/04/29 04:13:45;;;;;;;16.90;12.80;;;;;;;9.83;56.52;100046.88;111146;1254;23034;-76
2023/04/29 04:16:31;;;;;;;16.80;13.00;;;;;;;9.87;56.42;100043.75;111386;1254;22203;-77
2023/04/29 04:19:01;;;;;;;17.70;12.90;;;;;;;9.92;56.44;100041.67;111308;1253;23620;-77
2023/04/29 04:21:34;;;;;;;25.10;13.40;;;;;;;9.95;56.37;100041.86;111474;1249;23801;-75
2023/04/29 04:24:14;;;;;;;17.20;12.80;;;;;;;9.95;56.36;100043.25;111544;1249;21957;-77
2023/04/29 04:27:08;;;;;;;15.10;12.20;;;;;;;9.95;56.34;100040.48;111150;1253;22111;-76
2023/04/29 04:30:02;;;;;;;21.90;13.20;;;;;;;9.98;56.45;100040.56;111722;1247;22011;-77
2023/04/29 04:32:46;;;;;;;21.80;14.10;;;;;;;10.02;56.43;100040.05;111689;1241;21996;-77
2023/04/29 04:35:21;;;;;;;15.70;12.10;;;;;;;10.04;56.54;100041.00;111850;1241;21969;-78
2023/04/29 04:38:06;;;;;;;;;;;;;;;;;;;;;
2023/04/29 04:40:48;;;;;;;17.60;13.10;;;;;;;10.13;56.52;100044.47;112204;1244;23840;-79
2023/04/29 04:43:47;;;;;;;17.60;12.50;;;;;;;10.13;56.46;100037.69;112233;1244;21951;-77
2023/04/29 04:46:34;;;;;;;17.00;12.10;;;;;;;10.14;56.54;100034.51;112153;1246;22815;-76
2023/04/29 04:49:07;;;;;;;18.00;13.10;;;;;;;10.17;56.41;100034.55;111907;1242;21949;-77
2023/04/29 04:51:46;;;;;;;14.90;12.20;;;;;;;10.17;56.35;100031.78;111565;1249;21961;-77
2023/04/29 04:54:16;;;;;;;;;;;;;;;10.21;56.31;100029.05;111604;1249;21940;-76
2023/04/29 04:57:04;;;;;;;15.70;13.00;;;;;;;10.14;56.44;100020.09;111396;1249;21952;-75
2023/04/29 04:59:44;;;;;;;16.40;13.30;;;;;;;10.19;56.40;100018.83;111583;1252;21964;-77
2023/04/29 05:02:19;;;;;;;22.40;15.30;;;;;;;10.26;56.39;100020.61;110843;1257;22178;-78
2023/04/29 05:04:50;;;;;;;20.10;16.70;;;;;;;10.36;56.45;100018.15;110757;1259;21965;-78
2023/04/29 05:07:36;;;;;;;20.70;14.70;;;;;;;10.41;56.11;100023.32;110649;1259;22031;-77
2023/04/29 05:10:09;;;;;;;17.50;14.10;;;;;;;10.46;56.18;100021.05;110638;1259;23034;-75
2023/04/29 05:12:46;;;;;;;20.00;15.90;;;;;;;10.50;56.01;100022.96;110715;1259;21996;-78
2023/04/29 05:15:15;;;;;;;19.00;14.70;;;;;;;10.52;55.96;100024.79;110810;1257;23047;-76
2023/04/29 05:17:44;;;;;;;25.20;14.50;;;;;;;10.55;55.86;100028.66;111285;1253;22002;-77
2023/04/29 05:20:19;;;;;;;25.80;16.70;;;;;;;10.59;55.76;100029.02;111655;1247;21925;-76
2023/04/29 05:22:49;;;;;;;21.30;17.40;;;;;;;10.62;55.59;100029.56;112219;1240;22733;-76
2023/04/29 05:25:24;;;;;;;23.50;16.50;;;;;;;10.61;55.37;100030.67;113261;1236;22000;-77
2023/04/29 05:27:55;;;;;;;23.80;18.10;;;;;;;10.61;55.31;100033.61;112773;1236;22424;-78
2023/04/29 05:30:29;;;;;;;24.90;17.30;;;;;;;10.63;55.33;100035.45;112150;1244;21976;-76
2023/04/29 05:32:58;;;;;;;28.00;16.90;;;;;;;10.68;55.52;100034.89;112256;1244;23605;-77
2023/04/29 05:35:30;;;;;;;25.50;18.80;;;;;;;10.72;55.39;100036.46;112385;1244;21977;-75
2023/04/29 05:38:01;;;;;;;;;;;;;;;10.73;55.22;100040.40;112232;1243;21960;-76
2023/04/29 05:40:38;;;;;;;25.70;19.80;;;;;;;10.68;55.65;100038.19;112353;1244;22680;-77
2023/04/29 05:43:22;;;;;;;29.90;19.90;;;;;;;10.71;55.52;100039.81;112237;1244;21982;-75
2023/04/29 05:45:53;;;;;;;25.30;19.90;;;;;;;10.77;55.34;100040.05;111981;1245;21986;-76
2023/04/29 05:48:23;;;;;;;21.00;15.70;;;;;;;10.80;55.10;100036.81;111827;1246;21977;-78
2023/04/29 05:50:53;;;;;;;23.30;16.90;;;;;;;10.77;54.94;100037.64;112066;1245;22002;-75
2023/04/29 05:53:22;;;;;;;21.60;15.10;;;;;;;10.76;54.95;100037.16;112257;1245;21964;-76
2023/04/29 05:55:51;;;;;;;21.80;16.90;;;;;;;10.77;54.98;100035.17;112593;1240;21923;-76
2023/04/29 05:58:29;;;;;;;22.70;17.00;;;;;;;10.78;54.93;100036.88;112866;1241;21944;-77
2023/04/29 06:01:00;;;;;;;19.80;15.50;;;;;;;10.74;54.85;100042.27;112226;1245;22691;-76
2023/04/29 06:03:28;;;;;;;19.80;16.30;;;;;;;10.70;54.91;100046.63;112154;1244;22829;-76
2023/04/29 06:06:26;;;;;;;25.10;17.40;;;;;;;10.68;55.18;100050.73;111936;1245;21984;-79
2023/04/29 06:09:04;;;;;;;23.40;16.50;;;;;;;10.69;55.26;100049.12;112063;1245;24292;-77
2023/04/29 06:11:45;;;;;;;21.60;16.90;;;;;;;10.71;55.39;100052.83;112631;1241;22823;-77
2023/04/29 06:14:15;;;;;;;24.80;17.30;;;;;;;10.72;55.46;100045.30;112625;1240;22417;-78
2023/04/29 06:16:51;;;;;;;25.80;16.50;;;;;;;10.81;55.54;100052.77;112862;1240;21941;-77
2023/04/29 06:19:25;;;;;;;20.10;14.60;;;;;;;10.89;55.65;100046.84;112337;1237;21967;-79
2023/04/29 06:21:58;;;;;;;22.80;18.20;;;;;;;10.98;55.66;100048.89;111899;1246;21968;-77
2023/04/29 06:24:30;;;;;;;22.70;17.70;;;;;;;11.01;55.44;100055.55;112140;1245;23107;-78
2023/04/29 06:27:03;;;;;;;25.30;18.50;;;;;;;11.03;55.55;100051.47;112793;1241;21964;-77
2023/04/29 06:29:40;;;;;;;19.80;14.90;;;;;;;11.09;55.59;100048.23;112929;1241;22845;-78
2023/04/29 06:32:10;;;;;;;19.00;15.00;;;;;;;11.15;55.43;100048.14;112868;1239;21950;-76
2023/04/29 06:34:42;;;;;;;22.50;17.20;;;;;;;11.20;55.15;100044.62;112183;1246;22012;-76
2023/04/29 06:37:28;;;;;;;20.10;16.80;;;;;;;11.24;55.37;100038.52;112276;1240;22000;-78
2023/04/29 06:40:16;;;;;;;23.10;16.60;;;;;;;11.27;55.33;100043.22;112554;1245;21996;-78
2023/04/29 06:43:03;;;;;;;17.40;14.80;;;;;;;11.26;55.21;100043.98;112336;1245;21938;-77
2023/04/29 06:45:31;;;;;;;17.50;13.90;;;;;;;11.23;55.04;100042.21;112572;1245;21956;-77
2023/04/29 06:48:06;;;;;;;15.80;13.80;;;;;;;11.23;55.12;100047.44;112377;1245;21977;-76
2023/04/29 06:51:01;;;;;;;17.30;14.70;;;;;;;11.23;55.29;100042.02;112339;1245;22999;-79
2023/04/29 06:53:32;;;;;;;19.50;14.10;;;;;;;11.28;55.03;100040.43;112472;1245;21961;-77
2023/04/29 06:56:01;;;;;;;18.80;13.10;;;;;;;11.25;55.07;100034.47;112163;1245;24292;-76
2023/04/29 06:58:29;;;;;;;15.10;13.50;;;;;;;11.29;55.23;100032.88;112672;1236;23027;-76
2023/04/29 07:00:57;;;;;;;18.70;14.20;;;;;;;11.34;55.20;100034.91;112761;1241;22697;-77
2023/04/29 07:03:26;;;;;;;19.00;14.70;;;;;;;11.40;55.13;100035.31;112439;1245;21954;-77
2023/04/29 07:05:54;;;;;;;16.60;13.90;;;;;;;11.44;55.05;100037.92;112286;1245;21989;-75
2023/04/29 07:08:24;;;;;;;17.30;14.90;;;;;;;11.45;55.28;100032.83;112062;1245;21956;-76
2023/04/29 07:10:56;;;;;;;19.80;15.50;;;;;;;11.46;55.21;100034.71;112220;1240;23146;-75
2023/04/29 07:13:25;;;;;;;18.80;14.50;;;;;;;11.50;55.35;100032.61;112087;1245;23820;-75
2023/04/29 07:15:53;;;;;;;17.40;14.20;;;;;;;11.54;55.35;100030.48;112086;1245;22977;-75
2023/04/29 07:18:21;;;;;;;21.50;14.80;;;;;;;11.54;55.46;100031.72;112285;1241;23613;-76
2023/04/29 07:20:50;;;;;;;17.90;15.50;;;;;;;11.52;55.42;100029.36;113015;1236;22695;-76
2023/04/29 07:23:21;;;;;;;19.80;15.30;;;;;;;11.57;55.76;100028.46;113180;1236;23632;-75
2023/04/29 07:25:53;;;;;;;20.20;15.40;;;;;;;11.61;55.73;100027.56;113308;1236;22374;-75
2023/04/29 07:28:21;;;;;;;17.80;14.10;;;;;;;11.62;55.67;100028.19;113204;1235;21938;-75
2023/04/29 07:30:53;;;;;;;18.60;13.80;;;;;;;11.68;56.01;100028.46;113364;1235;21968;-76
2023/04/29 07:33:21;;;;;;;19.60;14.00;;;;;;;11.79;56.12;100025.98;113255;1236;23728;-76
2023/04/29 07:35:49;;;;;;;27.40;18.70;;;;;;;11.95;56.05;100027.54;113236;1235;21931;-75
2023/04/29 07:38:17;;;;;;;19.10;16.30;;;;;;;12.05;56.09;100027.58;113091;1235;23600;-75
2023/04/29 07:40:45;;;;;;;19.20;14.20;;;;;;;12.12;55.74;100024.95;113475;1236;23565;-75
2023/04/29 07:43:14;;;;;;;16.40;14.70;;;;;;;12.14;55.59;100024.84;113427;1236;21950;-77
2023/04/29 07:45:45;;;;;;;19.70;16.00;;;;;;;12.18;55.88;100026.05;112611;1241;23777;-76
2023/04/29 07:48:13;;;;;;;18.00;15.90;;;;;;;12.31;56.05;100022.98;112340;1241;22925;-76
2023/04/29 07:50:42;;;;;;;20.60;14.70;;;;;;;12.48;55.94;100025.26;112526;1240;21962;-76
2023/04/29 07:53:10;;;;;;;17.50;15.40;;;;;;;12.68;55.95;100021.61;113018;1240;22855;-75
2023/04/29 07:55:38;;;;;;;22.00;18.00;;;;;;;12.92;55.61;100026.16;113040;1241;21970;-76
2023/04/29 07:58:15;;;;;;;19.00;15.90;;;;;;;13.11;55.15;100022.84;113076;1241;22038;-77
2023/04/29 08:00:44;;;;;;;24.20;21.50;;;;;;;13.31;54.96;100018.14;113396;1240;22344;-76
2023/04/29 08:03:12;;;;;;;41.80;34.50;;;;;;;13.53;54.44;100017.11;113279;1236;24181;-74
2023/04/29 08:05:52;;;;;;;20.60;16.10;;;;;;;13.79;54.15;100020.54;113114;1235;21934;-75
2023/04/29 08:08:30;;;;;;;30.40;26.90;;;;;;;13.98;53.18;100024.54;114069;1235;21920;-77
2023/04/29 08:11:20;;;;;;;18.60;15.30;;;;;;;14.10;52.85;100025.65;113575;1235;21961;-78
2023/04/29 08:13:52;;;;;;;17.20;15.20;;;;;;;14.29;52.57;100023.85;112981;1235;23708;-76
2023/04/29 08:16:24;;;;;;;18.70;14.70;;;;;;;14.47;52.31;100022.98;113021;1228;21948;-76
2023/04/29 08:18:59;;;;;;;17.20;13.50;;;;;;;14.79;52.37;100021.42;112425;1241;23807;-75
2023/04/29 08:21:32;;;;;;;16.10;14.30;;;;;;;15.08;51.20;100021.08;112426;1241;21981;-77
2023/04/29 08:24:05;;;;;;;17.00;13.40;;;;;;;15.35;50.97;100016.59;112076;1245;23597;-77
2023/04/29 08:26:41;;;;;;;15.40;13.60;;;;;;;15.78;50.59;100020.52;112149;1245;21950;-76
2023/04/29 08:29:12;;;;;;;17.30;14.80;;;;;;;16.14;49.22;100018.16;111688;1250;22004;-76
2023/04/29 08:31:40;;;;;;;18.60;13.60;;;;;;;16.26;48.39;100022.64;111387;1251;23645;-76
2023/04/29 08:34:09;;;;;;;18.30;13.20;;;;;;;16.42;48.38;100021.23;111709;1250;24348;-77
2023/04/29 08:36:40;;;;;;;17.20;13.50;;;;;;;16.78;48.31;100016.02;111772;1246;23007;-76
2023/04/29 08:39:10;;;;;;;16.70;12.40;;;;;;;17.28;47.70;100014.78;111949;1246;21965;-76
2023/04/29 08:41:50;;;;;;;15.20;12.60;;;;;;;17.92;47.28;100012.88;111919;1241;23685;-77
2023/04/29 08:44:22;;;;;;;16.20;12.60;;;;;;;18.28;45.10;100013.69;112798;1241;21963;-76
2023/04/29 08:47:06;;;;;;;13.70;11.10;;;;;;;18.40;44.29;100015.80;112403;1241;21969;-76
2023/04/29 08:49:41;;;;;;;15.10;10.70;;;;;;;18.44;44.14;100013.41;112813;1241;23017;-75
2023/04/29 08:52:15;;;;;;;16.50;10.90;;;;;;;18.27;43.41;100010.25;112442;1241;23034;-76
2023/04/29 08:54:49;;;;;;;15.60;9.90;;;;;;;18.15;44.16;100012.06;112883;1235;21963;-77
2023/04/29 08:57:42;;;;;;;15.30;10.70;;;;;;;18.02;43.90;100011.23;113204;1235;21940;-77
2023/04/29 09:00:16;;;;;;;17.40;11.70;;;;;;;17.91;44.27;100007.30;112741;1239;23604;-78
2023/04/29 09:03:08;;;;;;;13.00;10.90;;;;;;;17.96;44.89;100011.16;113020;1239;21967;-77
2023/04/29 09:05:40;;;;;;;17.80;10.30;;;;;;;17.98;44.52;100010.69;112224;1245;22035;-78
2023/04/29 09:08:17;;;;;;;15.80;10.10;;;;;;;17.94;44.45;100008.65;111940;1248;23045;-77
2023/04/29 09:10:59;;;;;;;11.70;10.00;;;;;;;17.83;44.33;100007.88;111848;1250;23754;-75
2023/04/29 09:13:37;;;;;;;12.50;10.60;;;;;;;17.59;44.31;100012.61;109967;1251;2444729;-77
2023/04/29 09:16:25;;;;;;;17.70;11.10;;;;;;;17.43;44.81;100017.98;111710;1250;23024;-79
2023/04/29 09:18:59;;;;;;;15.50;10.50;;;;;;;17.35;45.55;100016.80;111670;1248;21976;-77
2023/04/29 09:21:35;;;;;;;15.00;13.10;;;;;;;17.46;45.79;100017.09;111966;1249;22377;-77
2023/04/29 09:24:03;;;;;;;18.30;12.20;;;;;;;17.51;45.35;100016.17;111872;1249;21963;-75
2023/04/29 09:26:43;;;;;;;12.30;10.60;;;;;;;17.54;45.40;100019.25;112334;1242;22967;-78
2023/04/29 09:29:17;;;;;;;13.10;10.90;;;;;;;17.76;46.01;100015.44;112447;1242;23715;-76
2023/04/29 09:31:46;;;;;;;14.20;10.20;;;;;;;18.11;46.11;100015.86;112530;1239;21958;-75
2023/04/29 09:34:16;;;;;;;12.80;10.90;;;;;;;18.55;45.27;100018.39;113059;1239;21919;-79
2023/04/29 09:36:47;;;;;;;12.50;11.10;;;;;;;18.71;43.96;100012.90;112800;1239;23019;-76
2023/04/29 09:39:21;;;;;;;16.90;12.50;;;;;;;18.86;44.00;100012.13;113072;1239;21942;-78
2023/04/29 09:41:52;;;;;;;12.30;11.00;;;;;;;19.01;43.32;100012.40;112925;1239;21947;-77
2023/04/29 09:44:23;;;;;;;11.90;10.80;;;;;;;19.08;42.74;100011.27;113127;1239;21963;-80
2023/04/29 09:47:04;;;;;;;12.30;10.90;;;;;;;19.22;43.37;100009.29;113182;1236;21945;-79
2023/04/29 09:49:39;;;;;;;13.60;12.20;;;;;;;19.46;42.60;100011.79;112936;1239;21947;-77
2023/04/29 09:52:13;;;;;;;14.00;10.80;;;;;;;19.60;42.38;100010.36;113011;1239;21956;-77
2023/04/29 09:54:44;;;;;;;12.50;10.70;;;;;;;19.72;42.10;100010.09;112828;1239;21948;-77
2023/04/29 09:57:17;;;;;;;13.10;10.60;;;;;;;19.97;42.73;100007.88;113327;1236;21943;-77
2023/04/29 09:59:48;;;;;;;13.00;10.80;;;;;;;20.33;41.83;100015.01;113453;1235;21985;-76
2023/04/29 10:02:18;;;;;;;18.10;12.90;;;;;;;20.47;40.87;100015.05;113334;1235;21947;-75
2023/04/29 10:04:57;;;;;;;16.20;10.60;;;;;;;20.53;40.55;100012.73;113336;1235;21950;-75
2023/04/29 10:07:27;;;;;;;14.30;10.70;;;;;;;20.60;40.25;100011.48;112944;1235;22182;-74
2023/04/29 10:09:56;;;;;;;18.70;12.20;;;;;;;20.44;40.17;100000.58;113692;1235;21962;-78
2023/04/29 10:12:25;;;;;;;14.80;11.60;;;;;;;20.15;39.79;100006.73;113407;1235;22709;-75
2023/04/29 10:15:14;;;;;;;12.30;10.90;;;;;;;19.65;40.13;100008.33;113547;1235;23923;-77
2023/04/29 10:18:07;;;;;;;13.70;11.90;;;;;;;19.40;41.32;100004.89;113500;1235;22710;-77
2023/04/29 10:20:40;;;;;;;12.00;10.00;;;;;;;19.56;42.04;100002.38;113798;1235;21969;-79
2023/04/29 10:23:14;;;;;;;17.30;11.80;;;;;;;19.65;41.25;100003.44;113373;1235;21958;-77
2023/04/29 10:26:06;;;;;;;14.80;12.30;;;;;;;19.63;41.33;100005.69;113569;1235;22990;-79
2023/04/29 10:28:50;;;;;;;10.40;9.30;;;;;;;19.65;41.47;100005.52;113223;1236;21958;-77
2023/04/29 10:31:26;;;;;;;12.70;10.00;;;;;;;19.76;41.40;100002.70;113170;1235;21943;-76
2023/04/29 10:33:59;;;;;;;10.80;9.30;;;;;;;19.81;41.03;100000.00;113769;1235;21974;-76
2023/04/29 10:36:36;;;;;;;12.60;8.80;;;;;;;19.78;40.79;99997.66;113642;1235;21997;-76
2023/04/29 10:39:51;;;;;;;11.00;7.90;;;;;;;19.68;41.08;99992.96;113643;1236;23912;-80
2023/04/29 10:42:35;;;;;;;11.70;9.30;;;;;;;19.58;40.83;100001.13;113344;1236;23734;-76
2023/04/29 10:45:36;;;;;;;10.90;8.90;;;;;;;19.29;40.99;100002.04;113100;1235;22154;-76
2023/04/29 10:48:27;;;;;;;9.80;8.60;;;;;;;18.97;41.47;100004.27;112973;1235;22140;-77
2023/04/29 10:51:09;;;;;;;9.90;9.00;;;;;;;18.80;42.29;100002.02;113060;1234;23003;-77
2023/04/29 10:54:01;;;;;;;11.10;8.70;;;;;;;18.73;42.30;100002.20;113106;1235;21951;-74
2023/04/29 10:56:51;;;;;;;9.50;8.50;;;;;;;18.59;42.61;100002.70;113192;1235;23602;-75
2023/04/29 10:59:42;;;;;;;11.60;7.70;;;;;;;18.56;42.90;100005.59;113186;1234;23547;-76
2023/04/29 11:02:14;;;;;;;8.40;7.50;;;;;;;18.51;42.99;100003.16;113190;1236;22708;-75
2023/04/29 11:05:09;;;;;;;8.70;7.20;;;;;;;18.45;43.05;100006.12;112408;1239;21941;-76
2023/04/29 11:07:43;;;;;;;8.10;7.30;;;;;;;18.37;43.17;100006.50;113062;1239;23027;-75
2023/04/29 11:10:14;;;;;;;11.10;8.60;;;;;;;18.29;43.33;100007.79;112938;1239;23025;-75
2023/04/29 11:12:44;;;;;;;16.40;12.30;;;;;;;18.33;43.87;100005.59;112930;1239;22701;-77
2023/04/29 11:15:19;;;;;;;11.40;8.40;;;;;;;18.49;44.07;100002.81;112759;1239;22002;-81
2023/04/29 11:17:49;;;;;;;8.30;7.20;;;;;;;18.61;43.86;100001.67;112795;1240;21965;-81
2023/04/29 11:20:25;;;;;;;10.30;6.90;;;;;;;18.77;43.85;100000.69;112884;1239;21938;-79
2023/04/29 11:22:57;;;;;;;11.40;7.20;;;;;;;18.87;43.37;99999.89;113344;1236;21955;-80
2023/04/29 11:25:45;;;;;;;8.60;6.80;;;;;;;18.90;43.13;99997.38;113267;1238;23606;-84
2023/04/29 11:28:15;;;;;;;8.40;6.70;;;;;;;19.02;43.07;99999.04;113120;1238;21948;-80
2023/04/29 11:30:46;;;;;;;8.20;6.10;;;;;;;19.10;42.68;99997.79;113131;1239;21936;-79
2023/04/29 11:33:15;;;;;;;7.60;5.90;;;;;;;19.17;42.62;99997.00;113350;1238;21925;-77
2023/04/29 11:35:44;;;;;;;9.40;7.40;;;;;;;19.22;42.53;99999.27;113461;1238;21984;-79
2023/04/29 11:38:16;;;;;;;9.60;8.00;;;;;;;19.30;42.89;99996.90;113572;1238;23732;-77
2023/04/29 11:40:49;;;;;;;7.60;5.40;;;;;;;19.43;42.78;99997.23;113231;1238;22312;-77
2023/04/29 11:43:19;;;;;;;9.60;6.50;;;;;;;19.50;42.19;99996.50;113495;1235;21912;-78
2023/04/29 11:45:48;;;;;;;8.20;6.00;;;;;;;19.58;42.27;99997.41;113582;1235;21926;-78
2023/04/29 11:48:25;;;;;;;8.30;5.90;;;;;;;19.74;42.13;99994.77;113597;1235;22068;-78
2023/04/29 11:50:59;;;;;;;8.30;6.10;;;;;;;19.94;41.84;99998.43;113568;1235;21927;-76